Terminal Aerodrome Forecast
Issued by NWS

Home | Current Version | Previous Version | Text Only | Print | Product List | Glossary On
Versions: 1 2 3 4 5 6 7 8 9 10 11 12 13 14 15
596
FTUS42 KTAE 051738
TAFABY
TAF
KABY 051738Z 0518/0618 31017G26KT P6SM SKC
     FM060000 31004KT P6SM SKC
     FM061500 32011KT P6SM SKC=

USA.gov is the U.S. government's official web portal to all federal, state and local government web resources and services.